Time;durP1;ratioP1;P1;durP2;ratioP2;P2;SDS_P1;SDS_P2;PMS_P1;PMS_P2;Temp;Humidity;BMP_temperature;BMP_pressure;BME280_temperature;BME280_humidity;BME280_pressure;Samples;Min_cycle;Max_cycle;Signal;HPM_P1;HPM_P2
2022/06/14 00:01:11;;;;;;;;;;;;;;;8.45;92.09;102238.25;2079757;28;38326;-69
2022/06/14 00:02:13;;;;;;;7.10;1.65;;;;;;;8.47;92.75;102233.78;2080311;28;24722;-69
2022/06/14 00:03:15;;;;;;;6.57;1.38;;;;;;;8.48;92.17;102232.94;2080696;28;20165;-69
2022/06/14 00:04:16;;;;;;;6.22;1.67;;;;;;;8.47;92.69;102237.38;2079909;28;28321;-69
2022/06/14 00:05:19;;;;;;;9.65;1.77;;;;;;;8.44;92.42;102236.47;2080085;28;29210;-69
2022/06/14 00:06:24;;;;;;;7.28;1.30;;;;;;;8.40;92.01;102244.41;2080331;28;20843;-69
2022/06/14 00:07:28;;;;;;;5.85;0.98;;;;;;;8.38;91.69;102247.94;2080463;28;26849;-68
2022/06/14 00:08:30;;;;;;;6.55;1.83;;;;;;;8.34;91.25;102251.47;2080237;28;21178;-69
2022/06/14 00:09:32;;;;;;;8.20;1.70;;;;;;;8.32;93.01;102246.13;2080335;28;21149;-69
2022/06/14 00:10:35;;;;;;;6.88;1.85;;;;;;;8.27;92.45;102245.19;2080591;28;20038;-69
2022/06/14 00:11:41;;;;;;;7.95;1.80;;;;;;;8.26;92.89;102245.19;2080128;28;20129;-69
2022/06/14 00:12:43;;;;;;;3.40;1.15;;;;;;;8.24;92.87;102247.84;2079349;28;25835;-70
2022/06/14 00:13:46;;;;;;;3.42;1.42;;;;;;;8.23;92.82;102254.06;2079963;28;21069;-69
2022/06/14 00:14:50;;;;;;;3.25;1.30;;;;;;;8.21;92.72;102255.81;2079490;28;20165;-70
2022/06/14 00:15:51;;;;;;;8.38;2.17;;;;;;;8.21;93.40;102250.50;2079534;28;22837;-69
2022/06/14 00:16:53;;;;;;;5.60;1.60;;;;;;;8.20;93.04;102254.03;2079501;28;30954;-70
2022/06/14 00:17:55;;;;;;;7.28;1.63;;;;;;;8.18;93.63;102251.38;2080664;28;20082;-69
2022/06/14 00:18:57;;;;;;;7.18;1.70;;;;;;;8.16;93.43;102252.22;2080562;28;20038;-70
2022/06/14 00:19:59;;;;;;;9.15;2.28;;;;;;;8.17;94.04;102260.25;2080003;28;21024;-69
2022/06/14 00:21:02;;;;;;;8.70;2.47;;;;;;;8.16;94.40;102253.09;2080333;28;20907;-69
2022/06/14 00:22:04;;;;;;;9.48;1.88;;;;;;;8.17;93.74;102254.91;2079539;28;21399;-69
2022/06/14 00:23:07;;;;;;;10.43;2.92;;;;;;;8.20;93.91;102251.34;2079631;28;20145;-69
2022/06/14 00:24:09;;;;;;;6.35;2.47;;;;;;;8.20;93.89;102259.38;2079317;28;39563;-69
2022/06/14 00:25:36;;;;;;;8.40;2.50;;;;;;;8.20;94.53;102270.03;2080035;28;27090;-69
2022/06/14 00:26:38;;;;;;;6.95;2.45;;;;;;;8.19;94.55;102265.59;2079896;28;31699;-69
2022/06/14 00:27:42;;;;;;;8.85;2.55;;;;;;;8.17;93.99;102268.25;2080553;28;20176;-69
2022/06/14 00:28:45;;;;;;;6.80;2.28;;;;;;;8.20;94.22;102264.69;2079369;28;29551;-69
2022/06/14 00:29:47;;;;;;;6.72;2.22;;;;;;;8.15;94.42;102264.69;2079790;28;27909;-69
2022/06/14 00:30:55;;;;;;;6.78;2.50;;;;;;;8.17;94.38;102259.38;2079948;28;35735;-69
2022/06/14 00:31:58;;;;;;;9.65;2.88;;;;;;;8.16;94.99;102269.13;2079991;28;27346;-69
2022/06/14 00:33:00;;;;;;;7.97;2.50;;;;;;;8.16;95.07;102269.13;2079899;28;20490;-69
2022/06/14 00:34:02;;;;;;;5.75;2.20;;;;;;;8.14;94.46;102262.88;2079016;28;21340;-69
2022/06/14 00:35:04;;;;;;;6.22;1.92;;;;;;;8.14;94.52;102256.66;2080192;28;24542;-69
2022/06/14 00:36:18;;;;;;;8.65;2.25;;;;;;;8.11;95.00;102252.22;2079900;28;26257;-69
2022/06/14 00:37:20;;;;;;;7.40;2.28;;;;;;;8.08;94.81;102264.63;2080452;28;22577;-69
2022/06/14 00:38:21;;;;;;;10.50;3.30;;;;;;;8.06;94.48;102259.28;2080041;28;21389;-69
2022/06/14 00:39:23;;;;;;;6.57;2.75;;;;;;;8.02;94.31;102260.09;2079990;28;21724;-69
2022/06/14 00:40:32;;;;;;;5.30;2.55;;;;;;;7.99;94.62;102255.66;2080077;28;23539;-69
2022/06/14 00:41:38;;;;;;;8.98;2.55;;;;;;;7.99;95.13;102265.44;2080469;28;20145;-69
2022/06/14 00:42:40;;;;;;;7.10;2.10;;;;;;;7.96;95.04;102260.94;2080487;28;20151;-69
2022/06/14 00:43:44;;;;;;;7.18;2.72;;;;;;;7.95;94.51;102258.25;2079951;28;20081;-69
2022/06/14 00:45:25;;;;;;;9.38;2.35;;;;;;;7.94;94.45;102262.69;2080122;28;20030;-69
2022/06/14 00:46:38;;;;;;;7.45;2.22;;;;;;;7.98;95.68;102259.19;2079721;28;20042;-70
2022/06/14 00:47:50;;;;;;;10.73;3.40;;;;;;;8.01;95.42;102264.53;2079255;28;27658;-70
2022/06/14 00:49:29;;;;;;;10.57;3.00;;;;;;;8.09;95.97;102258.38;2079762;28;25040;-69
2022/06/14 00:51:13;;;;;;;10.18;3.22;;;;;;;8.14;96.04;102259.31;2064046;28;39511;-69
2022/06/14 00:52:22;;;;;;;11.82;2.97;;;;;;;8.15;95.02;102253.13;2079566;28;22277;-70
2022/06/14 00:53:36;;;;;;;7.72;2.90;;;;;;;8.16;94.88;102257.56;2079558;28;20043;-70
2022/06/14 00:54:48;;;;;;;8.07;2.85;;;;;;;8.15;95.33;102255.78;2079192;28;23260;-70
2022/06/14 00:56:04;;;;;;;5.72;2.53;;;;;;;8.16;95.53;102247.78;2079996;28;20120;-70
2022/06/14 00:57:26;;;;;;;11.82;2.80;;;;;;;8.16;95.46;102254.88;2079602;28;26620;-70
2022/06/14 00:58:41;;;;;;;6.25;3.33;;;;;;;8.16;95.52;102257.56;2079480;28;20696;-69
2022/06/14 00:59:51;;;;;;;10.73;3.10;;;;;;;8.19;95.84;102257.59;2079184;28;20162;-70
2022/06/14 01:01:15;;;;;;;6.57;2.92;;;;;;;8.18;96.05;102254.03;2079499;28;20038;-70
2022/06/14 01:02:30;;;;;;;7.75;3.33;;;;;;;8.22;95.91;102260.28;2079674;28;21033;-70
2022/06/14 01:03:42;;;;;;;9.82;4.18;;;;;;;8.36;97.13;102255.03;2078956;28;41276;-70
2022/06/14 01:04:45;;;;;;;12.35;4.35;;;;;;;8.28;96.77;102254.09;2079319;28;22536;-70
2022/06/14 01:06:06;;;;;;;11.10;4.15;;;;;;;8.31;96.49;102238.09;2078562;28;28660;-70
2022/06/14 01:07:36;;;;;;;7.70;4.10;;;;;;;8.31;96.27;102247.03;2078871;28;27280;-70
2022/06/14 01:08:57;;;;;;;13.43;4.78;;;;;;;8.32;96.57;102243.44;2080508;28;22600;-70
2022/06/14 01:10:12;;;;;;;13.38;4.47;;;;;;;8.37;96.97;102241.72;2079290;28;20045;-70
2022/06/14 01:11:30;;;;;;;11.48;4.25;;;;;;;8.38;96.51;102251.53;2079783;28;20168;-71
2022/06/14 01:12:44;;;;;;;7.18;3.92;;;;;;;8.40;96.53;102249.75;2079581;28;20893;-70
2022/06/14 01:13:46;;;;;;;12.30;3.83;;;;;;;8.45;96.28;102255.13;2079806;28;28122;-69
2022/06/14 01:15:06;;;;;;;9.23;4.20;;;;;;;8.50;96.33;102263.19;2078829;28;39162;-70
2022/06/14 01:16:10;;;;;;;11.57;4.10;;;;;;;8.50;96.12;102256.06;2079164;28;27461;-70
2022/06/14 01:17:14;;;;;;;8.55;3.60;;;;;;;8.55;96.20;102251.66;2079510;28;20441;-70
2022/06/14 01:18:16;;;;;;;9.45;4.13;;;;;;;8.55;96.27;102256.13;2078660;28;23685;-71
2022/06/14 01:19:23;;;;;;;10.05;4.25;;;;;;;8.60;96.41;102255.25;2078238;28;30515;-70
2022/06/14 01:20:26;;;;;;;12.48;3.92;;;;;;;8.62;96.43;102255.28;2079987;28;29395;-70
2022/06/14 01:21:28;;;;;;;9.27;3.38;;;;;;;8.64;96.23;102245.50;2087161;28;20080;-70
2022/06/14 01:22:32;;;;;;;8.75;3.75;;;;;;;8.65;95.20;102246.38;2087339;28;28691;-70
2022/06/14 01:23:34;;;;;;;8.98;4.55;;;;;;;8.70;95.82;102245.50;2078773;28;20042;-71
2022/06/14 01:24:39;;;;;;;10.02;4.50;;;;;;;8.73;95.34;102253.56;2079180;28;20923;-70
2022/06/14 01:25:48;;;;;;;8.90;4.47;;;;;;;8.79;96.05;102250.94;2079760;28;25964;-70
2022/06/14 01:26:50;;;;;;;9.67;3.90;;;;;;;8.81;95.96;102258.97;2079877;28;20046;-70
2022/06/14 01:27:54;;;;;;;10.13;4.68;;;;;;;8.86;96.13;102261.63;2079550;28;20046;-70
2022/06/14 01:29:02;;;;;;;7.30;3.97;;;;;;;8.90;95.90;102264.34;2079598;28;20911;-71
2022/06/14 01:30:09;;;;;;;10.23;3.88;;;;;;;8.94;95.55;102265.25;2078684;28;29585;-70
2022/06/14 01:31:14;;;;;;;11.88;4.32;;;;;;;8.99;95.44;102258.16;2079339;28;29083;-70
2022/06/14 01:32:18;;;;;;;7.47;3.60;;;;;;;9.00;95.44;102265.28;2078763;28;27114;-70
2022/06/14 01:33:32;;;;;;;9.73;4.15;;;;;;;9.02;94.50;102266.16;2080013;28;20045;-71
2022/06/14 01:34:42;;;;;;;10.60;3.35;;;;;;;9.08;95.40;102270.63;2079509;28;21771;-70
2022/06/14 01:35:50;;;;;;;8.32;3.78;;;;;;;9.09;94.26;102259.97;2086721;28;36402;-70
2022/06/14 01:36:54;;;;;;;10.55;4.47;;;;;;;9.10;94.50;102261.75;2086657;28;20321;-70
2022/06/14 01:37:59;;;;;;;6.38;3.33;;;;;;;9.10;94.16;102266.22;2079241;28;20252;-70
2022/06/14 01:39:08;;;;;;;9.05;4.40;;;;;;;9.09;93.95;102265.31;2079821;28;20042;-70
2022/06/14 01:40:11;;;;;;;6.82;3.50;;;;;;;9.09;94.53;102267.97;2078674;28;33071;-70
2022/06/14 01:41:52;;;;;;;9.38;3.72;;;;;;;9.06;94.58;102259.06;2079129;28;27856;-71
2022/06/14 01:43:21;;;;;;;13.00;3.80;;;;;;;9.03;94.72;102254.59;2079646;28;21067;-70
2022/06/14 01:45:05;;;;;;;9.98;3.78;;;;;;;9.03;95.24;102254.59;2062073;28;20166;-71
2022/06/14 01:46:24;;;;;;;8.20;3.50;;;;;;;8.95;94.75;102251.00;2079921;28;29179;-70
2022/06/14 01:48:09;;;;;;;8.38;3.22;;;;;;;8.90;94.08;102253.66;2081209;28;30043;-71
2022/06/14 01:52:40;;;;;;;8.18;3.85;;;;;;;8.76;94.93;102256.25;2077910;28;23107;-74
2022/06/14 01:54:10;;;;;;;9.55;4.20;;;;;;;8.73;94.43;102250.88;2076748;28;20121;-71
2022/06/14 01:56:04;;;;;;;10.25;4.03;;;;;;;8.66;95.24;102259.72;2081042;28;24299;-71
2022/06/14 01:57:37;;;;;;;7.20;3.65;;;;;;;8.58;95.48;102243.69;2078285;28;21190;-71
2022/06/14 01:59:22;;;;;;;8.60;4.15;;;;;;;8.51;94.59;102251.66;2056236;28;20129;-74
2022/06/14 02:00:38;;;;;;;14.10;5.13;;;;;;;8.49;96.20;102253.38;2062669;28;35645;-74
2022/06/14 02:02:11;;;;;;;8.45;4.28;;;;;;;8.43;95.89;102248.03;2073443;28;20888;-72
2022/06/14 02:05:32;;;;;;;9.50;4.70;;;;;;;8.34;96.66;102254.13;2071689;28;22247;-75
2022/06/14 02:06:44;;;;;;;9.73;4.00;;;;;;;8.31;96.33;102249.69;2054843;28;25495;-74
2022/06/14 02:07:49;;;;;;;9.32;5.00;;;;;;;8.28;96.60;102249.66;2079766;28;35653;-73
2022/06/14 02:09:15;;;;;;;11.48;5.15;;;;;;;8.31;97.16;102243.44;2079135;28;20042;-71
2022/06/14 02:10:24;;;;;;;9.80;4.22;;;;;;;8.27;96.50;102244.31;2079924;28;33566;-73
2022/06/14 02:11:32;;;;;;;10.27;5.05;;;;;;;8.26;96.87;102246.09;2089085;28;20068;-73
2022/06/14 02:13:01;;;;;;;10.65;4.75;;;;;;;8.26;97.52;102243.41;2087741;28;41993;-75
2022/06/14 02:14:26;;;;;;;11.88;5.25;;;;;;;8.27;97.38;102241.63;2088629;28;21337;-74
2022/06/14 02:15:42;;;;;;;9.18;4.72;;;;;;;8.22;97.00;102231.84;2088641;28;32005;-74
2022/06/14 02:16:54;;;;;;;9.25;5.10;;;;;;;8.22;97.72;102247.84;2088065;28;21264;-74
2022/06/14 02:18:16;;;;;;;16.20;5.95;;;;;;;8.23;97.80;102238.94;2088023;28;30914;-71
2022/06/14 02:19:37;;;;;;;11.65;5.80;;;;;;;8.25;97.61;102238.94;2088593;28;26438;-72
2022/06/14 02:20:52;;;;;;;11.90;5.82;;;;;;;8.22;97.91;102238.94;2088798;28;32547;-74
2022/06/14 02:22:05;;;;;;;14.45;5.72;;;;;;;8.20;97.77;102246.03;2088746;28;33751;-72
2022/06/14 02:23:09;;;;;;;9.73;5.03;;;;;;;8.22;97.43;102238.94;2088816;28;24688;-73
2022/06/14 02:24:51;;;;;;;11.68;5.18;;;;;;;8.20;97.96;102232.69;2088660;28;20999;-71
2022/06/14 02:26:01;;;;;;;8.52;4.53;;;;;;;8.20;97.81;102232.69;2093924;28;36655;-75
2022/06/14 02:27:56;;;;;;;11.88;6.05;;;;;;;8.22;97.68;102236.28;2088877;28;20076;-72
2022/06/14 02:29:23;;;;;;;12.00;5.60;;;;;;;8.16;97.86;102238.88;2088844;28;29961;-70
2022/06/14 02:30:36;;;;;;;11.45;5.60;;;;;;;8.14;97.14;102238.88;2088805;28;34986;-70
2022/06/14 02:31:52;;;;;;;11.50;4.70;;;;;;;8.13;98.20;102236.19;2090158;28;30892;-70
2022/06/14 02:33:18;;;;;;;9.57;4.93;;;;;;;8.14;97.85;102243.31;2072755;28;20049;-73
2022/06/14 02:35:00;;;;;;;12.02;5.28;;;;;;;8.11;98.32;102248.63;2064186;28;21355;-71
2022/06/14 02:36:14;;;;;;;13.82;5.18;;;;;;;8.08;97.60;102243.28;2062147;28;20034;-73
2022/06/14 02:37:54;;;;;;;8.93;4.95;;;;;;;8.07;98.25;102254.81;2072599;28;20904;-71
2022/06/14 02:39:14;;;;;;;10.75;5.57;;;;;;;8.05;97.84;102254.81;2074018;28;40956;-70
2022/06/14 02:40:36;;;;;;;14.60;4.75;;;;;;;8.01;98.15;102245.88;2080285;28;28107;-71
2022/06/14 02:42:04;;;;;;;10.65;4.88;;;;;;;7.97;97.67;102244.06;2080884;28;20056;-73
2022/06/14 02:43:56;;;;;;;11.82;4.72;;;;;;;7.94;97.85;102243.16;2080137;28;20417;-76
2022/06/14 02:45:49;;;;;;;12.27;5.30;;;;;;;7.93;98.37;102244.03;2080335;28;32705;-71
2022/06/14 02:47:11;;;;;;;14.68;6.13;;;;;;;7.90;98.15;102244.91;2066904;28;25198;-71
2022/06/14 02:48:40;;;;;;;10.55;5.40;;;;;;;7.92;98.67;102248.47;2071215;28;35166;-73
2022/06/14 02:49:54;;;;;;;11.68;5.93;;;;;;;8.03;99.93;102244.13;2063167;28;36461;-72
2022/06/14 02:51:17;;;;;;;12.25;5.60;;;;;;;7.97;99.65;102240.53;2059799;28;20380;-71
2022/06/14 02:52:37;;;;;;;16.63;6.07;;;;;;;8.02;99.42;102233.44;2077651;28;27559;-71
2022/06/14 02:53:52;;;;;;;13.60;5.35;;;;;;;7.95;99.16;102237.84;2088004;28;33260;-70
2022/06/14 02:55:05;;;;;;;11.90;4.78;;;;;;;7.94;99.19;102236.03;2083908;28;22116;-75
2022/06/14 02:56:27;;;;;;;10.15;4.85;;;;;;;7.95;98.77;102232.50;2081636;28;27990;-74
2022/06/14 02:57:54;;;;;;;16.48;6.53;;;;;;;7.96;99.22;102234.28;2088186;28;23342;-73
2022/06/14 02:59:29;;;;;;;18.58;6.07;;;;;;;8.01;99.52;102231.66;2089158;28;20045;-73
2022/06/14 03:00:45;;;;;;;13.07;5.43;;;;;;;7.98;99.32;102235.16;2088794;28;20136;-71
2022/06/14 03:01:57;;;;;;;15.80;6.05;;;;;;;7.99;99.45;102236.97;2087980;28;31256;-73
2022/06/14 03:03:15;;;;;;;9.95;4.55;;;;;;;8.01;99.27;102235.22;2088294;28;32099;-75
2022/06/14 03:04:39;;;;;;;14.75;7.35;;;;;;;8.15;100.00;102235.34;2091844;28;25094;-73
2022/06/14 03:05:59;;;;;;;10.50;5.57;;;;;;;8.15;99.76;102232.66;2082788;28;20890;-71
2022/06/14 03:07:22;;;;;;;12.02;6.25;;;;;;;8.22;100.00;102236.28;2077505;28;20880;-70
2022/06/14 03:08:33;;;;;;;15.88;6.57;;;;;;;8.29;100.00;102238.13;2080164;28;28322;-75
2022/06/14 03:09:36;;;;;;;17.45;7.05;;;;;;;8.27;99.85;102229.19;2080735;28;21891;-70
2022/06/14 03:11:14;;;;;;;15.82;6.63;;;;;;;8.30;99.91;102231.88;2080602;28;21386;-74
2022/06/14 03:12:45;;;;;;;14.00;7.22;;;;;;;8.35;100.00;102232.81;2080595;28;20085;-74
2022/06/14 03:14:36;;;;;;;14.32;7.20;;;;;;;8.40;99.53;102231.06;2080053;28;31381;-74
2022/06/14 03:15:52;;;;;;;16.92;6.93;;;;;;;8.43;100.00;102238.22;2080832;28;23291;-73
2022/06/14 03:17:34;;;;;;;13.02;6.45;;;;;;;8.43;99.61;102235.56;2082187;28;26630;-75
2022/06/14 03:18:56;;;;;;;15.07;6.82;;;;;;;8.45;99.48;102232.91;2080520;28;28762;-74
2022/06/14 03:20:08;;;;;;;12.93;6.20;;;;;;;8.43;99.47;102229.34;2080424;28;23048;-72
2022/06/14 03:21:18;;;;;;;14.68;6.97;;;;;;;8.44;98.91;102232.03;2080111;28;21918;-71
2022/06/14 03:22:42;;;;;;;13.75;7.40;;;;;;;8.45;98.45;102238.25;2080068;28;21903;-71
2022/06/14 03:24:08;;;;;;;13.30;6.80;;;;;;;8.48;99.08;102238.28;2080244;28;27490;-76
2022/06/14 03:25:46;;;;;;;12.68;6.63;;;;;;;8.48;98.35;102238.28;2080214;28;24402;-71
2022/06/14 03:27:17;;;;;;;15.75;7.57;;;;;;;8.49;98.68;102237.38;2080256;28;24472;-76
2022/06/14 03:28:44;;;;;;;16.50;7.68;;;;;;;8.52;98.64;102232.06;2080200;28;24407;-71
2022/06/14 03:30:16;;;;;;;10.55;6.60;;;;;;;8.48;98.44;102247.16;2079807;28;25874;-70
2022/06/14 03:31:52;;;;;;;11.07;5.97;;;;;;;8.43;98.13;102237.34;2077613;28;27703;-71
2022/06/14 03:33:02;;;;;;;18.10;7.15;;;;;;;8.44;98.60;102236.47;2080612;28;27741;-70
2022/06/14 03:34:32;;;;;;;14.65;6.72;;;;;;;8.44;97.96;102236.47;2080326;28;29702;-70
2022/06/14 03:35:41;;;;;;;12.35;7.32;;;;;;;8.46;98.51;102237.38;2080365;28;22059;-71
2022/06/14 03:36:43;;;;;;;11.25;6.60;;;;;;;8.44;98.47;102240.03;2071623;28;20093;-71
2022/06/14 03:37:45;;;;;;;12.70;6.18;;;;;;;8.46;98.18;102245.38;2072252;28;30415;-70
2022/06/14 03:39:16;;;;;;;9.48;6.30;;;;;;;8.51;98.74;102240.97;2080144;28;37740;-71
2022/06/14 03:40:21;;;;;;;13.52;6.38;;;;;;;8.49;98.18;102242.72;2079893;28;28724;-70
2022/06/14 03:41:30;;;;;;;9.73;5.15;;;;;;;8.50;98.47;102245.38;2073156;28;31027;-71
2022/06/14 03:42:33;;;;;;;11.43;6.40;;;;;;;8.52;98.41;102245.41;2080395;28;20053;-71
2022/06/14 03:43:37;;;;;;;15.65;7.20;;;;;;;8.53;97.98;102244.53;2079180;28;27587;-71
2022/06/14 03:44:40;;;;;;;17.27;7.18;;;;;;;8.56;97.76;102237.44;2079624;28;26737;-70
2022/06/14 03:45:59;;;;;;;11.18;6.82;;;;;;;8.57;97.43;102233.88;2079905;28;20695;-71
2022/06/14 03:47:15;;;;;;;11.93;6.53;;;;;;;8.61;97.39;102232.09;2080177;28;29191;-71
2022/06/14 03:48:17;;;;;;;14.15;7.10;;;;;;;8.70;98.96;102239.28;2080699;28;21202;-70
2022/06/14 03:49:25;;;;;;;13.25;6.95;;;;;;;8.71;97.73;102241.97;2080154;28;25567;-71
2022/06/14 03:50:42;;;;;;;15.13;7.30;;;;;;;8.75;98.21;102241.09;2079433;28;20938;-71
2022/06/14 03:52:25;;;;;;;14.52;7.35;;;;;;;8.78;97.78;102240.25;2079913;28;22899;-71
2022/06/14 03:54:13;;;;;;;10.05;5.57;;;;;;;8.82;96.96;102239.34;2068837;28;20108;-71
2022/06/14 03:56:08;;;;;;;13.60;6.43;;;;;;;8.86;97.04;102242.94;2066245;28;25905;-71
2022/06/14 03:57:40;;;;;;;12.30;5.88;;;;;;;8.92;96.26;102245.66;2079086;28;32946;-71
2022/06/14 03:59:24;;;;;;;13.27;6.38;;;;;;;8.98;96.42;102243.00;2080764;28;20163;-71
2022/06/14 04:00:44;;;;;;;12.00;5.88;;;;;;;9.11;96.51;102242.16;2080134;28;26891;-71
2022/06/14 04:02:52;;;;;;;10.15;5.88;;;;;;;9.27;95.84;102243.13;2079801;28;37213;-71
2022/06/14 04:03:58;;;;;;;15.10;5.43;;;;;;;9.49;94.94;102244.09;2071719;28;20061;-71
2022/06/14 04:05:13;;;;;;;13.60;5.60;;;;;;;9.65;95.07;102244.09;2080258;28;28657;-70
2022/06/14 04:06:57;;;;;;;8.57;4.53;;;;;;;9.91;94.76;102246.84;2079460;28;25959;-71
2022/06/14 04:08:25;;;;;;;13.60;4.90;;;;;;;10.34;93.03;102241.50;2072671;28;29106;-71
2022/06/14 04:09:56;;;;;;;9.48;5.13;;;;;;;10.76;91.46;102238.75;2079102;28;29596;-71
2022/06/14 04:11:24;;;;;;;13.75;4.75;;;;;;;11.28;88.92;102239.41;2079186;28;39506;-71
2022/06/14 04:12:41;;;;;;;10.90;3.63;;;;;;;11.77;87.40;102230.22;2079735;28;37411;-72
2022/06/14 04:14:25;;;;;;;8.77;3.78;;;;;;;12.05;83.16;102219.28;2080720;28;20046;-71
2022/06/14 04:15:49;;;;;;;6.75;3.15;;;;;;;12.42;82.71;102232.38;2079884;28;20156;-71
2022/06/14 04:17:20;;;;;;;5.53;3.25;;;;;;;12.77;78.52;102223.03;2080074;28;29560;-71
2022/06/14 04:18:56;;;;;;;7.05;2.67;;;;;;;13.16;77.24;102226.16;2080109;28;20177;-72
2022/06/14 04:20:31;;;;;;;9.48;2.83;;;;;;;13.47;73.60;102233.84;2079718;28;34060;-72
2022/06/14 04:21:57;;;;;;;6.80;2.60;;;;;;;13.88;72.43;102226.94;2079448;28;20615;-72
2022/06/14 04:23:20;;;;;;;5.53;2.13;;;;;;;14.41;73.37;102226.91;2080134;28;23672;-72
2022/06/14 04:24:44;;;;;;;11.57;2.80;;;;;;;14.46;70.48;102223.25;2079688;28;23253;-72
2022/06/14 04:26:12;;;;;;;7.85;2.58;;;;;;;15.15;68.97;102215.59;2079590;28;24731;-72
2022/06/14 04:27:35;;;;;;;6.60;1.65;;;;;;;15.89;68.62;102218.44;2079882;28;24273;-72
2022/06/14 04:28:58;;;;;;;8.30;2.00;;;;;;;16.52;64.81;102223.09;2080451;28;22218;-73
2022/06/14 04:30:38;;;;;;;4.70;1.77;;;;;;;17.16;61.17;102220.41;2079507;28;28391;-73
2022/06/14 04:32:43;;;;;;;6.88;1.90;;;;;;;17.62;59.75;102217.19;2062030;28;20047;-73
2022/06/14 04:34:08;;;;;;;4.88;1.45;;;;;;;18.21;57.89;102216.19;2058314;28;22665;-72
2022/06/14 04:35:40;;;;;;;8.18;1.80;;;;;;;17.85;58.18;102213.75;2071232;28;25673;-73
2022/06/14 04:36:57;;;;;;;6.70;1.42;;;;;;;18.67;58.11;102223.56;2071986;28;20081;-73
2022/06/14 04:38:34;;;;;;;10.65;1.98;;;;;;;18.06;57.45;102213.06;2071664;28;36590;-73
2022/06/14 04:39:58;;;;;;;7.88;1.92;;;;;;;18.13;58.05;102208.31;2070270;28;25283;-73
2022/06/14 04:41:07;;;;;;;7.07;1.38;;;;;;;18.13;58.46;102200.19;2071212;28;25031;-73
2022/06/14 04:42:37;;;;;;;8.47;1.63;;;;;;;17.61;56.65;102210.91;2071030;28;30501;-72
2022/06/14 04:43:43;;;;;;;7.05;1.38;;;;;;;17.60;57.69;102216.38;2070806;28;30153;-73
2022/06/14 04:44:57;;;;;;;8.02;1.67;;;;;;;17.35;59.35;102217.13;2083062;28;20052;-73
2022/06/14 04:46:09;;;;;;;11.63;2.00;;;;;;;17.31;58.62;102218.16;2077082;28;22096;-72
2022/06/14 04:47:19;;;;;;;6.00;1.40;;;;;;;17.40;57.76;102220.59;2082283;28;22847;-72
2022/06/14 04:48:31;;;;;;;8.65;1.50;;;;;;;17.50;58.13;102213.97;2083373;28;21096;-72
2022/06/14 04:49:52;;;;;;;6.80;1.60;;;;;;;17.54;56.23;102214.75;2071356;28;31818;-73
2022/06/14 04:51:11;;;;;;;6.68;1.30;;;;;;;18.07;57.00;102217.56;2071818;28;25893;-73
2022/06/14 04:52:20;;;;;;;5.65;1.50;;;;;;;18.04;55.58;102211.34;2071078;28;20104;-73
2022/06/14 04:53:30;;;;;;;6.63;1.40;;;;;;;18.30;56.49;102216.78;2071675;28;24089;-73
2022/06/14 04:54:47;;;;;;;6.88;1.65;;;;;;;18.14;54.80;102218.22;2071362;28;22201;-72
2022/06/14 04:56:02;;;;;;;5.68;1.45;;;;;;;18.03;55.11;102224.00;2079415;28;20034;-72
2022/06/14 04:57:43;;;;;;;9.55;1.48;;;;;;;17.68;56.93;102223.31;2080601;28;20050;-72
2022/06/14 04:59:25;;;;;;;5.30;1.40;;;;;;;17.09;57.51;102226.94;2075594;28;30670;-72
2022/06/14 05:00:41;;;;;;;6.38;1.88;;;;;;;17.15;58.03;102221.31;2062620;28;29152;-72
2022/06/14 05:02:21;;;;;;;5.95;1.25;;;;;;;16.83;58.33;102215.94;2079229;28;21987;-72
2022/06/14 05:03:55;;;;;;;6.85;1.27;;;;;;;16.79;58.36;102223.25;2079624;28;30610;-72
2022/06/14 05:05:34;;;;;;;8.50;1.70;;;;;;;16.84;58.66;102218.66;2079116;28;34426;-72
2022/06/14 05:06:46;;;;;;;6.60;1.50;;;;;;;16.71;58.49;102220.78;2077932;28;31068;-72
2022/06/14 05:07:57;;;;;;;9.32;1.73;;;;;;;16.70;60.78;102224.41;2078335;28;31449;-72
2022/06/14 05:09:08;;;;;;;10.10;1.60;;;;;;;16.54;60.62;102218.53;2078485;28;22232;-72
2022/06/14 05:11:01;;;;;;;9.45;1.52;;;;;;;16.32;60.84;102226.34;2078636;28;28628;-72
2022/06/14 05:12:24;;;;;;;6.18;1.20;;;;;;;16.44;60.96;102225.16;2049628;28;26199;-70
2022/06/14 05:14:12;;;;;;;10.20;1.38;;;;;;;16.11;59.54;102224.19;2079946;28;28928;-72
2022/06/14 05:16:08;;;;;;;8.38;1.40;;;;;;;15.70;62.93;102229.66;2078098;28;21284;-72
2022/06/14 05:17:30;;;;;;;8.18;1.90;;;;;;;15.51;61.90;102229.19;2061176;28;20968;-73
2022/06/14 05:19:25;;;;;;;6.80;1.00;;;;;;;15.52;64.18;102222.88;2062319;28;32223;-72
2022/06/14 05:20:53;;;;;;;10.82;1.88;;;;;;;15.46;64.45;102233.81;2063059;28;21133;-73
2022/06/14 05:22:11;;;;;;;8.30;1.67;;;;;;;15.39;63.97;102238.44;2062989;28;25797;-72
2022/06/14 05:23:35;;;;;;;10.57;1.55;;;;;;;15.32;64.35;102238.63;2072026;28;32775;-73
2022/06/14 05:24:40;;;;;;;8.15;1.90;;;;;;;15.56;63.65;102232.69;2075919;28;20042;-72
2022/06/14 05:26:18;;;;;;;6.10;1.73;;;;;;;15.64;64.11;102230.69;2077935;28;21889;-72
2022/06/14 05:28:03;;;;;;;7.72;1.70;;;;;;;15.91;62.09;102233.69;2072321;28;40298;-73
2022/06/14 05:29:16;;;;;;;10.27;2.42;;;;;;;15.99;60.81;102242.50;2055595;28;23786;-73
2022/06/14 05:30:40;;;;;;;7.32;1.60;;;;;;;16.30;61.29;102238.13;2058398;28;24128;-71
2022/06/14 05:32:16;;;;;;;9.48;1.60;;;;;;;16.44;60.49;102244.06;2058817;28;31589;-72
2022/06/14 05:33:48;;;;;;;8.13;1.50;;;;;;;16.48;59.58;102242.16;2073116;28;24991;-73
2022/06/14 05:35:30;;;;;;;10.55;2.00;;;;;;;16.23;59.78;102237.41;2073339;28;20043;-72
2022/06/14 05:36:56;;;;;;;11.85;1.92;;;;;;;16.60;59.70;102245.41;2072804;28;20193;-72
2022/06/14 05:38:19;;;;;;;7.38;1.70;;;;;;;16.47;60.51;102240.38;2087899;28;21806;-72
2022/06/14 05:39:47;;;;;;;7.63;1.27;;;;;;;16.92;59.55;102248.19;2078355;28;35261;-72
2022/06/14 05:41:03;;;;;;;9.20;1.50;;;;;;;17.61;56.25;102245.25;2072854;28;21022;-72
2022/06/14 05:42:20;;;;;;;11.27;2.10;;;;;;;18.05;56.51;102240.22;2089593;28;21616;-73
2022/06/14 05:43:42;;;;;;;8.43;1.58;;;;;;;18.40;53.82;102246.28;2085260;28;25791;-72
2022/06/14 05:44:49;;;;;;;7.65;1.65;;;;;;;19.04;53.55;102235.81;2080253;28;33002;-72
2022/06/14 05:46:00;;;;;;;9.68;1.90;;;;;;;19.51;50.89;102240.34;2080537;28;20034;-73
2022/06/14 05:47:27;;;;;;;;;;;;;;;20.00;48.36;102245.66;2081304;28;24767;-73
2022/06/14 05:48:45;;;;;;;10.32;1.25;;;;;;;20.64;48.91;102242.03;2080909;28;22944;-73
2022/06/14 05:49:58;;;;;;;9.98;1.60;;;;;;;21.20;45.61;102240.38;2080897;28;22182;-73
2022/06/14 05:51:03;;;;;;;6.68;1.20;;;;;;;21.94;45.66;102239.56;2080382;28;32526;-73
2022/06/14 05:52:19;;;;;;;6.82;1.38;;;;;;;22.65;43.36;102238.69;2080106;28;34975;-73
2022/06/14 05:53:28;;;;;;;6.72;1.42;;;;;;;23.04;43.42;102238.41;2079958;28;21405;-74
2022/06/14 05:54:55;;;;;;;6.13;1.25;;;;;;;24.06;38.90;102237.22;2083523;28;20981;-73
2022/06/14 05:56:12;;;;;;;7.93;1.60;;;;;;;24.59;40.20;102233.16;2081142;28;23191;-74
2022/06/14 05:57:41;;;;;;;6.78;1.50;;;;;;;24.33;37.58;102231.97;2076758;28;20287;-73
2022/06/14 05:59:34;;;;;;;5.97;1.40;;;;;;;24.87;36.97;102247.84;2081097;28;25535;-73
2022/06/14 06:01:32;;;;;;;8.18;0.98;;;;;;;24.61;36.47;102236.66;2080866;28;26949;-72
2022/06/14 06:03:02;;;;;;;6.82;0.98;;;;;;;25.53;35.37;102235.41;2063636;28;21275;-72
2022/06/14 06:04:23;;;;;;;9.23;1.30;;;;;;;25.62;37.46;102236.69;2064133;28;33213;-73
2022/06/14 06:05:44;;;;;;;7.57;1.38;;;;;;;25.75;36.44;102228.50;2063330;28;21138;-73
2022/06/14 06:06:57;;;;;;;5.75;1.23;;;;;;;25.69;35.58;102229.81;2062553;28;25224;-73
2022/06/14 06:08:15;;;;;;;6.97;1.48;;;;;;;24.83;36.96;102235.31;2063430;28;26046;-73
2022/06/14 06:09:48;;;;;;;5.55;1.08;;;;;;;25.99;34.88;102232.38;2072409;28;20038;-72
2022/06/14 06:11:03;;;;;;;9.10;1.63;;;;;;;25.65;37.07;102231.00;2072541;28;29430;-72
2022/06/14 06:12:55;;;;;;;6.35;1.25;;;;;;;26.25;35.88;102227.84;2073136;28;20046;-72
2022/06/14 06:14:07;;;;;;;6.78;1.20;;;;;;;26.59;35.08;102233.72;2072145;28;27618;-72
2022/06/14 06:15:28;;;;;;;5.93;1.50;;;;;;;26.03;34.83;102233.06;2072490;28;21142;-73
2022/06/14 06:18:36;;;;;;;7.20;1.35;;;;;;;25.78;34.99;102233.81;2072465;28;32122;-72